Time;durP1;ratioP1;P1;durP2;ratioP2;P2;SDS_P1;SDS_P2;PMS_P1;PMS_P2;Temp;Humidity;BMP_temperature;BMP_pressure;BME280_temperature;BME280_humidity;BME280_pressure;Samples;Min_cycle;Max_cycle;Signal;HPM_P1;HPM_P2
2023/10/22 00:01:13;;;;;;;39.60;16.00;;;;;;;22.54;58.88;97862.08;67903;1273;1016379;-68
2023/10/22 00:04:33;;;;;;;38.30;17.50;;;;;;;22.59;59.04;97861.86;67866;1273;1016368;-66
2023/10/22 00:07:35;;;;;;;39.10;16.80;;;;;;;22.63;58.94;97861.44;67938;1273;1016147;-65
2023/10/22 00:10:38;;;;;;;41.30;17.40;;;;;;;22.67;58.92;97862.33;67929;1273;1016208;-68
2023/10/22 00:13:40;;;;;;;40.50;19.00;;;;;;;22.71;58.83;97860.15;67914;1273;1016229;-68
2023/10/22 00:16:42;;;;;;;39.10;18.80;;;;;;;22.78;58.93;97854.39;67870;1273;1016265;-63
2023/10/22 00:19:45;;;;;;;42.30;18.60;;;;;;;22.88;58.43;97852.77;67855;1273;1017062;-68
2023/10/22 00:22:47;;;;;;;40.80;19.30;;;;;;;22.88;58.38;97853.10;67930;1273;1016330;-67
2023/10/22 00:25:50;;;;;;;41.20;20.60;;;;;;;22.85;58.61;97857.67;67940;1273;1018436;-68
2023/10/22 00:28:52;;;;;;;;;;;;;;;22.83;58.76;97855.38;67914;1273;1016396;-68
2023/10/22 00:31:54;;;;;;;40.50;18.50;;;;;;;22.78;58.73;97858.17;67918;1273;1016323;-68
2023/10/22 00:34:57;;;;;;;;;;;;;;;22.78;58.68;97861.75;67888;1273;1016281;-67
2023/10/22 00:37:59;;;;;;;43.40;18.70;;;;;;;22.78;58.52;97860.30;67856;1273;1016432;-68
2023/10/22 00:41:02;;;;;;;41.60;19.50;;;;;;;22.77;58.59;97857.91;67887;1273;1016450;-67
2023/10/22 00:44:04;;;;;;;44.80;20.00;;;;;;;22.68;58.84;97856.05;67910;1273;1016200;-68
2023/10/22 00:47:06;;;;;;;;;;;;;;;22.69;58.78;97852.07;67933;1273;1017283;-68
2023/10/22 00:50:09;;;;;;;36.10;17.90;;;;;;;22.76;58.72;97846.64;67867;1273;1016396;-68
2023/10/22 00:53:12;;;;;;;39.80;18.20;;;;;;;22.91;58.35;97840.48;67897;1273;1016078;-67
2023/10/22 00:56:14;;;;;;;37.80;17.40;;;;;;;22.90;58.17;97836.94;67902;1273;1016297;-67
2023/10/22 00:59:16;;;;;;;38.60;16.60;;;;;;;22.79;58.40;97838.32;67916;1273;1016412;-68
2023/10/22 01:02:19;;;;;;;35.50;16.30;;;;;;;22.89;58.11;97837.05;67866;1273;1016500;-68
2023/10/22 01:05:21;;;;;;;37.90;17.10;;;;;;;22.79;58.25;97832.90;67880;1273;1016362;-67
2023/10/22 01:08:24;;;;;;;;;;;;;;;22.69;58.39;97834.40;67852;1273;1016164;-67
2023/10/22 01:11:26;;;;;;;38.40;18.30;;;;;;;22.76;58.11;97833.15;67882;1273;1015981;-67
2023/10/22 01:14:29;;;;;;;;;;;;;;;22.83;57.94;97827.08;67874;1273;1015984;-64
2023/10/22 01:17:31;;;;;;;;;;;;;;;22.79;58.03;97824.34;67709;1273;1273839;-67
2023/10/22 01:20:34;;;;;;;39.50;17.90;;;;;;;22.73;58.02;97824.31;67902;1273;1016336;-67
2023/10/22 01:23:37;;;;;;;34.30;16.50;;;;;;;22.69;57.99;97825.91;67947;1273;1015917;-67
2023/10/22 01:26:39;;;;;;;31.10;15.10;;;;;;;22.56;58.36;97816.91;67877;1273;1016415;-67
2023/10/22 01:29:42;;;;;;;33.00;15.60;;;;;;;22.51;58.76;97809.73;67905;1273;1016303;-67
2023/10/22 01:32:44;;;;;;;;;;;;;;;22.51;58.58;97807.79;67905;1273;1016447;-63
2023/10/22 01:35:47;;;;;;;37.30;17.60;;;;;;;22.57;58.28;97807.05;67911;1273;1017461;-67
2023/10/22 01:38:49;;;;;;;42.40;18.30;;;;;;;22.62;58.23;97797.17;67936;1273;1019180;-67
2023/10/22 01:41:51;;;;;;;;;;;;;;;22.70;58.04;97795.30;67910;1273;1016355;-68
2023/10/22 01:44:54;;;;;;;35.80;16.60;;;;;;;22.69;58.06;97795.05;67862;1273;1016461;-66
2023/10/22 01:47:56;;;;;;;36.40;16.10;;;;;;;22.71;58.01;97788.84;67867;1251;1016393;-66
2023/10/22 01:50:59;;;;;;;;;;;;;;;22.86;57.45;97785.72;67935;1273;1017515;-67
2023/10/22 01:54:02;;;;;;;33.60;16.60;;;;;;;22.84;57.41;97783.41;67921;1273;1015968;-67
2023/10/22 01:57:04;;;;;;;32.70;15.50;;;;;;;22.89;57.24;97774.45;67886;1273;1016119;-67
2023/10/22 02:00:10;;;;;;;31.40;15.00;;;;;;;22.87;57.03;97773.42;67875;1273;1018164;-67
2023/10/22 02:03:12;;;;;;;33.50;15.30;;;;;;;22.89;57.12;97769.12;67885;1273;1016369;-66
2023/10/22 02:06:15;;;;;;;30.80;14.60;;;;;;;22.85;57.14;97765.36;67914;1273;1016365;-66
2023/10/22 02:09:17;;;;;;;32.20;13.50;;;;;;;22.84;57.06;97759.63;67916;1273;1016482;-67
2023/10/22 02:12:20;;;;;;;;;;;;;;;22.85;57.07;97754.98;67883;1273;1016088;-67
2023/10/22 02:15:23;;;;;;;33.40;15.20;;;;;;;22.68;57.25;97751.63;67869;1273;1016471;-68
2023/10/22 02:18:25;;;;;;;30.20;13.90;;;;;;;22.35;57.75;97738.70;67898;1273;1016477;-67
2023/10/22 02:21:28;;;;;;;36.50;16.00;;;;;;;22.10;58.11;97733.30;67899;1273;1016436;-67
2023/10/22 02:24:30;;;;;;;;;;;;;;;22.07;58.58;97724.42;67873;1273;1016461;-68
2023/10/22 02:27:33;;;;;;;32.40;14.60;;;;;;;21.94;58.80;97718.52;67873;1273;1016281;-67
2023/10/22 02:30:35;;;;;;;30.50;13.80;;;;;;;21.92;58.83;97721.66;67910;1273;1016458;-66
2023/10/22 02:33:38;;;;;;;33.10;14.60;;;;;;;21.80;59.22;97719.72;67879;1273;1016369;-67
2023/10/22 02:36:40;;;;;;;;;;;;;;;21.84;59.20;97715.60;67894;1273;1016335;-67
2023/10/22 02:39:43;;;;;;;32.30;14.80;;;;;;;21.82;59.22;97715.52;67878;1273;1016360;-67
2023/10/22 02:42:45;;;;;;;31.40;13.90;;;;;;;21.73;59.59;97715.17;67880;1273;1016489;-68
2023/10/22 02:45:47;;;;;;;34.20;15.30;;;;;;;21.86;59.45;97715.34;67921;1273;1016130;-67
2023/10/22 02:48:50;;;;;;;;;;;;;;;21.82;59.60;97719.94;67874;1273;1016476;-67
2023/10/22 02:51:53;;;;;;;33.90;13.80;;;;;;;21.79;59.35;97727.23;67868;1250;1016339;-67
2023/10/22 02:54:56;;;;;;;30.70;13.70;;;;;;;21.65;59.65;97730.75;67942;1273;1016190;-67
2023/10/22 02:57:58;;;;;;;32.60;13.80;;;;;;;21.49;60.34;97726.52;67868;1273;1016467;-67
2023/10/22 03:01:00;;;;;;;33.50;14.70;;;;;;;21.63;60.06;97720.47;67874;1273;1016514;-67
2023/10/22 03:04:03;;;;;;;35.10;15.60;;;;;;;21.91;59.17;97719.61;67905;1273;1016308;-67
2023/10/22 03:07:05;;;;;;;35.40;14.70;;;;;;;21.93;58.99;97714.36;67912;1273;1016242;-66
2023/10/22 03:10:09;;;;;;;31.60;13.90;;;;;;;22.01;58.69;97708.05;67852;1273;1016428;-66
2023/10/22 03:13:11;;;;;;;33.10;14.90;;;;;;;21.97;58.62;97706.09;67901;1273;1015987;-68
2023/10/22 03:16:14;;;;;;;32.90;15.50;;;;;;;21.86;59.49;97716.73;67852;1273;1016293;-67
2023/10/22 03:19:19;;;;;;;35.30;15.70;;;;;;;21.85;59.88;97722.09;67866;1273;1016805;-67
2023/10/22 03:22:21;;;;;;;33.40;15.00;;;;;;;22.03;59.51;97721.30;67928;1273;1016349;-67
2023/10/22 03:25:24;;;;;;;34.20;16.00;;;;;;;22.24;59.11;97722.84;67884;1273;1016817;-67
2023/10/22 03:28:26;;;;;;;36.30;15.70;;;;;;;22.27;58.84;97724.58;67858;1273;1016201;-68
2023/10/22 03:31:29;;;;;;;34.80;17.40;;;;;;;22.12;59.35;97725.17;67867;1273;1016397;-67
2023/10/22 03:34:31;;;;;;;35.90;18.20;;;;;;;22.06;59.63;97727.42;67930;1273;1016447;-68
2023/10/22 03:37:34;;;;;;;37.60;18.30;;;;;;;22.06;59.74;97726.66;67916;1273;1018064;-67
2023/10/22 03:40:36;;;;;;;38.10;20.00;;;;;;;22.27;59.61;97727.59;67925;1273;1016306;-65
2023/10/22 03:43:38;;;;;;;40.10;20.50;;;;;;;22.35;59.18;97738.17;67856;1273;1016455;-67
2023/10/22 03:46:41;;;;;;;40.70;21.00;;;;;;;22.35;59.35;97740.40;67889;1273;1016439;-67
2023/10/22 03:49:43;;;;;;;35.70;18.80;;;;;;;22.45;59.25;97740.88;67919;1273;1016015;-68
2023/10/22 03:52:45;;;;;;;36.20;17.60;;;;;;;22.56;59.00;97737.73;67879;1273;1016443;-67
2023/10/22 03:55:48;;;;;;;35.50;17.80;;;;;;;22.60;58.87;97739.98;67917;1273;1016463;-67
2023/10/22 03:58:50;;;;;;;36.90;17.00;;;;;;;22.66;58.63;97736.11;67872;1273;1016459;-67
2023/10/22 04:01:55;;;;;;;35.70;17.80;;;;;;;22.64;58.70;97732.86;67909;1273;1016461;-68
2023/10/22 04:04:57;;;;;;;35.00;16.90;;;;;;;22.57;58.85;97727.96;67900;1273;1017977;-68
2023/10/22 04:08:00;;;;;;;38.50;18.10;;;;;;;22.64;58.51;97722.36;67896;1273;1016412;-67
2023/10/22 04:11:04;;;;;;;;;;;;;;;22.80;58.04;97719.81;67878;1273;1018294;-68
2023/10/22 04:14:07;;;;;;;37.90;16.30;;;;;;;22.87;57.87;97712.12;67857;1273;1016244;-63
2023/10/22 04:17:09;;;;;;;32.90;16.70;;;;;;;22.89;57.63;97708.87;67879;1273;1020053;-67
2023/10/22 04:20:11;;;;;;;39.60;17.20;;;;;;;22.83;57.70;97715.17;67911;1272;1016251;-68
2023/10/22 04:23:14;;;;;;;34.20;17.50;;;;;;;22.82;57.57;97710.98;67892;1273;1016358;-67
2023/10/22 04:26:16;;;;;;;;;;;;;;;22.72;57.74;97706.08;67923;1273;1016285;-66
2023/10/22 04:29:19;;;;;;;34.40;16.90;;;;;;;22.69;57.89;97698.84;67899;1273;1016020;-66
2023/10/22 04:32:21;;;;;;;35.60;17.10;;;;;;;22.46;58.36;97695.48;67844;1273;1016413;-67
2023/10/22 04:35:24;;;;;;;33.20;16.20;;;;;;;22.20;59.00;97699.80;67911;1273;1019476;-66
2023/10/22 04:38:26;;;;;;;36.00;17.40;;;;;;;22.04;59.56;97702.16;67919;1273;1016173;-66
2023/10/22 04:41:28;;;;;;;35.10;16.30;;;;;;;22.15;59.49;97699.44;67922;1273;1016315;-67
2023/10/22 04:44:31;;;;;;;33.90;15.80;;;;;;;22.18;59.59;97707.41;67871;1273;1016346;-67
2023/10/22 04:47:33;;;;;;;35.10;17.00;;;;;;;22.26;59.38;97702.60;67892;1273;1016300;-67
2023/10/22 04:50:35;;;;;;;31.80;15.10;;;;;;;22.25;59.41;97708.92;67905;1273;1018472;-65
2023/10/22 04:53:38;;;;;;;31.40;14.80;;;;;;;22.27;59.41;97709.38;67919;1273;1016409;-67
2023/10/22 04:56:40;;;;;;;37.80;15.70;;;;;;;22.25;59.63;97709.29;67910;1273;1016218;-67
2023/10/22 04:59:43;;;;;;;33.10;16.00;;;;;;;22.25;59.82;97706.17;67930;1273;1016388;-66
2023/10/22 05:02:45;;;;;;;34.80;15.40;;;;;;;22.41;59.57;97696.80;67846;1273;1016317;-67
2023/10/22 05:05:47;;;;;;;32.40;15.10;;;;;;;22.56;59.18;97694.33;67887;1273;1017067;-67
2023/10/22 05:08:50;;;;;;;31.30;14.10;;;;;;;22.65;58.85;97693.23;67860;1273;1016128;-64
2023/10/22 05:11:52;;;;;;;29.60;14.30;;;;;;;22.69;58.86;97695.75;67922;1273;1018037;-65
2023/10/22 05:14:55;;;;;;;31.40;14.30;;;;;;;22.76;58.76;97700.14;67913;1273;1016320;-67
2023/10/22 05:17:57;;;;;;;34.10;16.30;;;;;;;22.76;58.85;97706.59;67877;1273;1016272;-66
2023/10/22 05:21:00;;;;;;;34.10;16.10;;;;;;;22.74;58.94;97706.64;67891;1273;1016438;-65
2023/10/22 05:24:02;;;;;;;;;;;;;;;22.81;58.85;97708.63;67916;1273;1016390;-67
2023/10/22 05:27:05;;;;;;;34.80;16.50;;;;;;;22.91;58.55;97701.14;67933;1273;1016436;-67
2023/10/22 05:30:07;;;;;;;;;;;;;;;22.88;58.42;97699.73;67963;1273;1016451;-67
2023/10/22 05:33:10;;;;;;;35.60;17.20;;;;;;;22.89;58.27;97699.05;67883;1273;1016384;-68
2023/10/22 05:36:12;;;;;;;31.90;15.50;;;;;;;22.78;58.55;97703.35;67910;1273;1017179;-68
2023/10/22 05:39:14;;;;;;;32.00;15.20;;;;;;;22.72;58.58;97703.45;67893;1273;1016194;-67
2023/10/22 05:42:17;;;;;;;28.80;14.80;;;;;;;22.70;58.67;97700.03;67911;1273;1016232;-67
2023/10/22 05:45:20;;;;;;;32.20;16.10;;;;;;;22.65;58.56;97698.73;67854;1273;1016386;-68
2023/10/22 05:48:22;;;;;;;32.10;15.80;;;;;;;22.49;58.74;97701.32;67863;1273;1016143;-68
2023/10/22 05:51:25;;;;;;;29.40;14.60;;;;;;;22.52;58.57;97698.30;67949;1273;1016413;-68
2023/10/22 05:54:27;;;;;;;;;;;;;;;22.41;58.62;97697.35;67924;1273;1016480;-68
2023/10/22 05:57:29;;;;;;;33.00;15.80;;;;;;;22.24;58.97;97691.17;67934;1273;1016205;-68
2023/10/22 06:00:32;;;;;;;31.90;15.50;;;;;;;22.18;59.21;97691.58;67897;1273;1019681;-68
2023/10/22 06:03:34;;;;;;;31.70;16.10;;;;;;;22.23;59.18;97688.77;67906;1273;1016619;-68
2023/10/22 06:06:37;;;;;;;33.40;15.70;;;;;;;22.22;59.30;97687.59;67954;1273;1016414;-66
2023/10/22 06:09:39;;;;;;;33.20;16.00;;;;;;;22.32;59.40;97691.02;67903;1273;1016381;-67
2023/10/22 06:12:41;;;;;;;35.20;17.00;;;;;;;22.54;59.23;97691.20;67930;1273;1016464;-68
2023/10/22 06:15:44;;;;;;;32.60;16.50;;;;;;;22.74;58.48;97689.07;67886;1273;1016355;-67
2023/10/22 06:18:46;;;;;;;;;;;;;;;22.71;58.49;97690.46;67891;1273;1016463;-68
2023/10/22 06:21:49;;;;;;;35.30;16.90;;;;;;;22.83;58.18;97695.23;67910;1273;1016412;-68
2023/10/22 06:24:51;;;;;;;;;;;;;;;22.96;58.04;97693.35;67909;1273;1016263;-68
2023/10/22 06:27:55;;;;;;;34.90;17.20;;;;;;;23.03;58.04;97692.73;67905;1273;1016454;-68
2023/10/22 06:30:57;;;;;;;37.60;17.80;;;;;;;23.05;57.83;97687.63;67916;1273;1016419;-68
2023/10/22 06:34:00;;;;;;;33.50;17.00;;;;;;;22.94;58.13;97688.04;67849;1273;1017210;-68
2023/10/22 06:37:02;;;;;;;;;;;;;;;23.11;57.74;97686.88;67870;1273;1016278;-67
2023/10/22 06:40:05;;;;;;;34.40;16.10;;;;;;;23.12;57.56;97684.62;67884;1273;1016425;-67
2023/10/22 06:43:07;;;;;;;32.90;15.90;;;;;;;23.11;57.65;97678.89;67943;1273;1016207;-67
2023/10/22 06:46:10;;;;;;;31.40;15.70;;;;;;;23.21;57.75;97678.09;67930;1273;1016455;-68
2023/10/22 06:49:12;;;;;;;30.30;14.90;;;;;;;23.15;57.65;97677.91;67875;1273;1016876;-67
2023/10/22 06:52:15;;;;;;;34.40;17.30;;;;;;;22.86;58.01;97679.11;67947;1273;1016134;-69
2023/10/22 06:55:17;;;;;;;37.30;18.10;;;;;;;22.61;58.59;97680.21;67897;1273;1016388;-67
2023/10/22 06:58:19;;;;;;;34.10;17.50;;;;;;;22.60;58.58;97675.52;67915;1273;1016262;-68
2023/10/22 07:01:22;;;;;;;;;;;;;;;22.69;59.04;97677.34;67922;1273;1016327;-68
2023/10/22 07:04:25;;;;;;;37.50;17.50;;;;;;;22.97;58.56;97672.13;67943;1273;1016517;-68
2023/10/22 07:07:27;;;;;;;37.50;17.50;;;;;;;23.20;58.11;97675.95;67912;1273;1016170;-67
2023/10/22 07:10:30;;;;;;;39.00;19.80;;;;;;;23.23;58.09;97677.41;67907;1273;1016679;-68
2023/10/22 07:13:32;;;;;;;37.90;19.10;;;;;;;23.31;58.16;97675.98;67899;1273;1016420;-68
2023/10/22 07:16:34;;;;;;;39.50;20.20;;;;;;;23.51;57.93;97680.00;67916;1273;1016153;-68
2023/10/22 07:19:37;;;;;;;;;;;;;;;23.39;58.24;97677.23;67931;1273;1016149;-69
2023/10/22 07:22:39;;;;;;;40.80;20.50;;;;;;;23.49;58.10;97672.96;67935;1273;1016457;-67
2023/10/22 07:25:42;;;;;;;35.40;19.40;;;;;;;23.67;57.90;97674.32;67909;1273;1016416;-67
2023/10/22 07:28:45;;;;;;;38.50;18.60;;;;;;;23.72;58.04;97670.83;67879;1273;1016341;-67
2023/10/22 07:31:52;;;;;;;36.70;18.70;;;;;;;23.79;58.06;97674.70;67906;1273;1016363;-67
2023/10/22 07:34:54;;;;;;;38.30;20.00;;;;;;;23.78;58.23;97675.20;67925;1273;1018487;-68
2023/10/22 07:37:57;;;;;;;;;;;;;;;23.86;58.00;97675.24;67894;1273;1016426;-68
2023/10/22 07:40:59;;;;;;;34.60;17.50;;;;;;;23.89;57.96;97675.46;67951;1273;1016812;-67
2023/10/22 07:44:02;;;;;;;;;;;;;;;23.92;57.86;97678.30;67931;1273;1016253;-68
2023/10/22 07:47:04;;;;;;;34.20;17.60;;;;;;;23.98;57.65;97677.27;67922;1273;1016473;-68
2023/10/22 07:50:07;;;;;;;;;;;;;;;23.97;57.69;97675.75;67889;1273;1016666;-68
2023/10/22 07:53:13;;;;;;;35.10;17.90;;;;;;;24.00;57.93;97675.54;67863;1273;1016418;-68
2023/10/22 07:56:15;;;;;;;32.70;17.00;;;;;;;24.22;57.32;97678.67;67903;1273;1017154;-68
2023/10/22 07:59:18;;;;;;;40.80;22.90;;;;;;;24.16;57.34;97680.28;67906;1273;1016307;-68
2023/10/22 08:02:20;;;;;;;39.30;20.40;;;;;;;24.06;57.37;97679.66;67931;1273;1015894;-68
2023/10/22 08:05:23;;;;;;;34.00;18.50;;;;;;;23.91;57.38;97681.22;67907;1273;1016376;-67
2023/10/22 08:08:25;;;;;;;32.30;17.80;;;;;;;23.70;57.48;97678.08;67922;1273;1016335;-70
2023/10/22 08:11:28;;;;;;;35.20;18.40;;;;;;;23.49;58.05;97678.30;67923;1273;1017338;-68
2023/10/22 08:14:30;;;;;;;35.10;18.40;;;;;;;23.53;57.86;97678.06;67868;1271;1016198;-69
2023/10/22 08:17:33;;;;;;;35.20;18.00;;;;;;;23.44;57.80;97677.44;67886;1273;1016242;-69
2023/10/22 08:20:36;;;;;;;32.90;16.20;;;;;;;23.36;58.17;97677.92;67868;1273;1016294;-68
2023/10/22 08:23:39;;;;;;;33.70;15.90;;;;;;;23.32;58.48;97680.05;67865;1273;1016457;-68
2023/10/22 08:26:41;;;;;;;;;;;;;;;23.18;58.91;97681.05;67912;1273;1016442;-68
2023/10/22 08:29:44;;;;;;;30.90;16.10;;;;;;;23.16;59.12;97680.52;67900;1273;1015998;-68
2023/10/22 08:32:47;;;;;;;;;;;;;;;23.38;58.62;97681.86;67905;1273;1016441;-68
2023/10/22 08:35:49;;;;;;;31.10;16.80;;;;;;;23.54;58.44;97679.17;67932;1273;1016450;-67
2023/10/22 08:38:52;;;;;;;31.40;17.00;;;;;;;23.61;58.76;97678.23;67935;1273;1016211;-68
2023/10/22 08:41:56;;;;;;;29.20;14.30;;;;;;;23.53;58.74;97676.55;67925;1273;1016399;-68
2023/10/22 08:44:58;;;;;;;34.70;18.20;;;;;;;23.44;59.19;97677.40;67899;1273;1016419;-68
2023/10/22 08:48:01;;;;;;;;;;;;;;;23.62;58.86;97675.59;67930;1273;1016128;-67
2023/10/22 08:51:03;;;;;;;31.30;15.80;;;;;;;23.66;58.71;97674.54;67912;1273;1018431;-68
2023/10/22 08:54:08;;;;;;;;;;;;;;;23.63;58.92;97676.52;67925;1272;1016439;-68
2023/10/22 08:57:10;;;;;;;27.30;13.00;;;;;;;23.51;59.36;97677.04;67918;1273;1016394;-68
2023/10/22 09:00:13;;;;;;;28.10;13.20;;;;;;;23.36;59.53;97679.81;67925;1273;1016435;-68
2023/10/22 09:03:15;;;;;;;26.30;11.30;;;;;;;23.31;59.62;97681.23;67893;1273;1016286;-68
2023/10/22 09:06:19;;;;;;;;;;;;;;;23.28;59.55;97678.82;67952;1273;1016277;-68
2023/10/22 09:09:22;;;;;;;29.30;14.20;;;;;;;23.39;59.50;97680.27;67961;1273;1016234;-68
2023/10/22 09:12:24;;;;;;;;;;;;;;;23.54;59.32;97679.04;67921;1273;1016525;-68
2023/10/22 09:15:27;;;;;;;24.30;12.00;;;;;;;23.47;59.80;97678.06;67890;1273;1016360;-68
2023/10/22 09:18:29;;;;;;;;;;;;;;;23.27;60.39;97681.58;67892;1273;1017037;-68
2023/10/22 09:21:32;;;;;;;22.90;10.20;;;;;;;23.21;60.46;97677.97;67926;1273;1016703;-68
2023/10/22 09:24:35;;;;;;;;;;;;;;;23.20;60.75;97677.23;67951;1273;1015874;-68
2023/10/22 09:27:39;;;;;;;24.90;10.00;;;;;;;23.23;60.81;97677.15;67864;1273;1016386;-68
2023/10/22 09:30:41;;;;;;;23.50;10.70;;;;;;;23.13;60.94;97680.30;67906;1273;1015980;-67
2023/10/22 09:33:44;;;;;;;22.90;9.50;;;;;;;23.08;61.01;97678.25;67923;1273;1016461;-68
2023/10/22 09:36:46;;;;;;;23.90;9.90;;;;;;;23.05;61.04;97679.27;67959;1273;1016396;-67
2023/10/22 09:39:49;;;;;;;;;;;;;;;23.01;60.98;97680.03;67916;1273;1016408;-67
2023/10/22 09:42:51;;;;;;;21.20;8.60;;;;;;;22.97;60.96;97679.98;67900;1273;1016608;-68
2023/10/22 09:45:54;;;;;;;21.50;9.10;;;;;;;22.87;61.35;97689.16;67913;1273;1016386;-68
2023/10/22 09:48:56;;;;;;;;;;;;;;;22.68;61.78;97687.82;67923;1273;1016397;-66
2023/10/22 09:51:59;;;;;;;19.90;7.80;;;;;;;22.58;61.74;97690.15;67900;1273;1016618;-67
2023/10/22 09:55:01;;;;;;;;;;;;;;;22.49;62.27;97692.11;67913;1273;1016386;-68
2023/10/22 09:58:04;;;;;;;19.70;7.40;;;;;;;22.42;62.44;97691.31;67875;1273;1018357;-68
2023/10/22 10:01:06;;;;;;;18.80;7.00;;;;;;;22.29;62.91;97693.91;67925;1273;1016506;-68
2023/10/22 10:04:09;;;;;;;;;;;;;;;22.44;62.51;97688.60;67957;1273;1016000;-68
2023/10/22 10:07:11;;;;;;;22.30;8.80;;;;;;;22.52;62.53;97686.59;67915;1273;1016424;-68
2023/10/22 10:10:14;;;;;;;;;;;;;;;22.66;62.73;97683.15;67874;1273;1016381;-68
2023/10/22 10:13:16;;;;;;;19.50;7.20;;;;;;;22.72;62.42;97683.05;67926;1273;1016469;-68
2023/10/22 10:16:19;;;;;;;;;;;;;;;22.74;62.83;97682.25;67962;1273;1017352;-68
2023/10/22 10:19:22;;;;;;;20.10;7.60;;;;;;;22.81;62.90;97674.58;67912;1273;1016384;-68
2023/10/22 10:22:24;;;;;;;19.80;6.90;;;;;;;22.95;62.32;97674.51;67960;1273;1016073;-68
2023/10/22 10:25:27;;;;;;;19.90;6.60;;;;;;;22.98;62.26;97672.04;67931;1273;1016437;-68
2023/10/22 10:28:30;;;;;;;21.20;7.90;;;;;;;22.94;62.97;97668.50;67890;1273;1016099;-68
2023/10/22 10:31:32;;;;;;;20.10;6.80;;;;;;;23.13;62.58;97666.88;67895;1273;1016529;-68
2023/10/22 10:34:35;;;;;;;;;;;;;;;23.25;62.43;97671.31;67945;1273;1016274;-68
2023/10/22 10:37:37;;;;;;;19.40;6.90;;;;;;;23.31;61.94;97667.88;67902;1273;1016433;-68
2023/10/22 10:40:40;;;;;;;;;;;;;;;23.16;62.39;97670.06;67929;1273;1016409;-68
2023/10/22 10:43:42;;;;;;;22.50;8.60;;;;;;;23.09;62.82;97672.35;67914;1273;1016291;-68
2023/10/22 10:46:45;;;;;;;;;;;;;;;23.16;62.44;97672.08;67930;1273;1017958;-68
2023/10/22 10:49:47;;;;;;;21.80;7.80;;;;;;;23.22;62.24;97669.34;67918;1273;1016599;-68
2023/10/22 10:52:52;;;;;;;;;;;;;;;23.26;62.44;97669.17;67911;1273;1016395;-67
2023/10/22 10:55:54;;;;;;;19.70;7.50;;;;;;;23.19;62.95;97671.10;67916;1273;1016480;-68
2023/10/22 10:58:57;;;;;;;21.30;7.20;;;;;;;23.25;62.69;97665.86;67932;1273;1016421;-68
2023/10/22 11:01:59;;;;;;;;;;;;;;;23.19;62.82;97666.66;67951;1273;1016485;-67
2023/10/22 11:05:01;;;;;;;20.80;7.10;;;;;;;23.15;62.89;97666.27;67901;1273;1016153;-67
2023/10/22 11:08:04;;;;;;;;;;;;;;;23.32;61.52;97672.23;67898;1273;1016431;-67
2023/10/22 11:11:06;;;;;;;19.50;6.00;;;;;;;23.19;62.33;97678.23;67914;1273;1016533;-68
2023/10/22 11:14:09;;;;;;;18.90;6.40;;;;;;;23.27;62.63;97678.16;67912;1273;1018843;-68
2023/10/22 11:17:12;;;;;;;;;;;;;;;23.42;61.90;97675.55;67886;1273;1016270;-68
2023/10/22 11:20:15;;;;;;;17.90;6.00;;;;;;;23.34;61.64;97678.28;67935;1273;1016301;-67
2023/10/22 11:23:18;;;;;;;18.10;6.10;;;;;;;23.15;62.40;97682.70;67894;1273;1018997;-68
2023/10/22 11:26:20;;;;;;;17.80;5.80;;;;;;;23.21;62.73;97677.68;67887;1273;1018286;-68
2023/10/22 11:29:23;;;;;;;17.80;5.90;;;;;;;23.35;62.32;97686.73;67969;1273;1016467;-67
2023/10/22 11:32:26;;;;;;;15.80;4.80;;;;;;;23.24;62.02;97685.85;67901;1273;1017141;-67
2023/10/22 11:35:28;;;;;;;16.00;4.30;;;;;;;23.16;61.95;97689.66;67895;1273;1016539;-65
2023/10/22 11:38:31;;;;;;;;;;;;;;;23.23;61.87;97692.63;67913;1273;1017036;-67
2023/10/22 11:41:33;;;;;;;14.40;4.80;;;;;;;23.20;61.97;97699.83;67951;1273;1016637;-67
2023/10/22 11:44:36;;;;;;;16.20;5.00;;;;;;;23.39;62.09;97702.66;67896;1273;1016337;-67
2023/10/22 11:47:39;;;;;;;16.20;4.80;;;;;;;23.44;61.27;97704.33;67869;1273;1016229;-67
2023/10/22 11:50:41;;;;;;;17.60;5.40;;;;;;;23.16;61.49;97709.77;67933;1273;1016307;-66
2023/10/22 11:53:45;;;;;;;17.30;5.40;;;;;;;22.98;61.47;97712.98;67916;1273;1016461;-67
2023/10/22 11:56:48;;;;;;;18.70;6.10;;;;;;;22.85;62.02;97712.05;67885;1273;1016515;-67
2023/10/22 11:59:50;;;;;;;17.50;5.40;;;;;;;22.89;61.69;97723.18;67870;1273;1015929;-67
2023/10/22 12:02:53;;;;;;;17.50;5.40;;;;;;;22.66;62.29;97720.16;67897;1273;1016889;-64
2023/10/22 12:05:55;;;;;;;17.00;5.40;;;;;;;22.55;62.79;97725.90;67866;1273;1016387;-67
2023/10/22 12:08:59;;;;;;;15.00;5.00;;;;;;;22.33;63.05;97734.30;67899;1273;1016106;-68
2023/10/22 12:12:05;;;;;;;15.80;5.30;;;;;;;22.20;63.01;97735.02;67872;1273;1016281;-68
2023/10/22 12:15:07;;;;;;;17.30;5.30;;;;;;;21.96;63.67;97746.23;67881;1273;1016392;-61
2023/10/22 12:18:10;;;;;;;18.80;5.70;;;;;;;21.85;63.88;97749.08;67921;1273;1017032;-64
2023/10/22 12:21:13;;;;;;;18.60;5.70;;;;;;;21.69;64.12;97755.51;67894;1273;1016055;-63
2023/10/22 12:24:15;;;;;;;18.40;5.70;;;;;;;21.69;65.03;97753.31;67883;1273;1016707;-66
2023/10/22 12:27:18;;;;;;;15.70;5.70;;;;;;;21.71;64.29;97764.30;67930;1273;1018179;-67
2023/10/22 12:30:20;;;;;;;;;;;;;;;21.53;64.48;97758.83;67925;1273;1016477;-67
2023/10/22 12:33:23;;;;;;;;;;;;;;;21.63;64.03;97768.13;67899;1273;1016297;-67
2023/10/22 12:36:25;;;;;;;15.90;5.40;;;;;;;21.59;64.08;97775.89;67888;1273;1016360;-68
2023/10/22 12:39:28;;;;;;;;;;;;;;;21.69;63.66;97775.41;67973;1273;1016418;-67
2023/10/22 12:42:30;;;;;;;14.80;5.20;;;;;;;21.71;63.15;97778.55;67930;1273;1019747;-67
2023/10/22 12:45:33;;;;;;;;;;;;;;;21.79;63.46;97781.63;67888;1273;1016527;-66
2023/10/22 12:48:36;;;;;;;14.60;4.50;;;;;;;21.85;63.33;97779.98;67881;1273;1016434;-68
2023/10/22 12:51:38;;;;;;;13.00;4.70;;;;;;;21.82;62.93;97784.81;67960;1273;1016707;-68
2023/10/22 12:54:42;;;;;;;14.20;4.50;;;;;;;21.75;62.57;97788.16;67931;1273;1016490;-67
2023/10/22 12:57:45;;;;;;;11.50;4.40;;;;;;;21.81;62.45;97785.50;67916;1273;1015753;-68
2023/10/22 13:00:47;;;;;;;11.40;4.20;;;;;;;21.83;62.13;97793.73;67869;1273;1016437;-66
2023/10/22 13:03:50;;;;;;;12.60;4.10;;;;;;;21.88;62.19;97798.67;67862;1273;1016462;-68
2023/10/22 13:06:52;;;;;;;11.80;4.10;;;;;;;21.89;61.56;97803.19;67906;1273;1016370;-68
2023/10/22 13:09:55;;;;;;;15.20;4.60;;;;;;;21.73;61.77;97808.83;67933;1273;1018825;-68
2023/10/22 13:12:57;;;;;;;14.60;4.90;;;;;;;21.64;62.53;97812.84;67875;1273;1016377;-67
2023/10/22 13:16:00;;;;;;;13.80;4.60;;;;;;;21.57;62.50;97820.23;67709;1273;1248491;-64
2023/10/22 13:19:02;;;;;;;14.30;4.70;;;;;;;21.54;62.36;97833.58;67912;1273;1017616;-67
2023/10/22 13:22:05;;;;;;;;;;;;;;;21.62;62.26;97835.11;67915;1273;1016438;-68
2023/10/22 13:25:07;;;;;;;14.70;4.70;;;;;;;21.65;62.02;97837.80;67857;1273;1016021;-68
2023/10/22 13:28:10;;;;;;;10.60;3.70;;;;;;;21.59;62.34;97848.33;67923;1273;1016335;-67
2023/10/22 13:31:13;;;;;;;13.30;4.10;;;;;;;21.60;62.38;97849.27;67920;1273;1016437;-66
2023/10/22 13:34:16;;;;;;;12.60;4.40;;;;;;;21.69;62.03;97857.42;67848;1273;1016379;-66
2023/10/22 13:37:18;;;;;;;13.80;4.40;;;;;;;21.69;61.71;97859.16;67886;1273;1016405;-68
2023/10/22 13:40:22;;;;;;;;;;;;;;;21.64;61.95;97868.30;67918;1273;1016880;-68
2023/10/22 13:43:25;;;;;;;14.20;4.70;;;;;;;21.58;62.21;97874.79;67910;1273;1015946;-68
2023/10/22 13:46:27;;;;;;;14.30;4.70;;;;;;;21.71;61.75;97876.74;67873;1273;1016254;-68
2023/10/22 13:49:30;;;;;;;16.10;4.90;;;;;;;21.69;61.70;97875.04;67898;1273;1016290;-69
2023/10/22 13:52:32;;;;;;;;;;;;;;;21.72;61.67;97879.66;67885;1273;1016452;-68
2023/10/22 13:55:34;;;;;;;13.20;4.00;;;;;;;21.75;61.61;97891.16;67951;1273;1016335;-66
2023/10/22 13:58:37;;;;;;;13.00;4.20;;;;;;;21.74;61.59;97894.65;67937;1273;1016486;-68
2023/10/22 14:01:39;;;;;;;;;;;;;;;21.77;61.60;97894.30;67915;1273;1015775;-68